createdAt,value
2018-12-20T00:01:31.850Z,4.07
2018-12-20T00:04:13.157Z,4.09
2018-12-20T00:06:55.167Z,4.10
2018-12-20T00:09:30.881Z,4.14
2018-12-20T00:12:04.433Z,4.15
2018-12-20T00:14:45.876Z,4.19
2018-12-20T00:17:33.183Z,4.20
2018-12-20T00:20:06.896Z,4.18
2018-12-20T00:22:49.255Z,4.21
2018-12-20T00:25:32.241Z,4.30
2018-12-20T00:28:11.630Z,4.25
2018-12-20T00:30:53.151Z,4.30
2018-12-20T00:33:35.224Z,4.27
2018-12-20T00:36:15.563Z,4.23
2018-12-20T00:38:57.648Z,4.25
2018-12-20T00:41:30.881Z,4.32
2018-12-20T00:44:12.638Z,4.34
2018-12-20T00:46:54.394Z,4.38
2018-12-20T00:49:27.413Z,4.33
2018-12-20T00:52:08.645Z,4.32
2018-12-20T00:54:50.558Z,4.30
2018-12-20T00:57:32.426Z,4.29
2018-12-20T01:00:09.517Z,4.30
2018-12-20T01:02:55.273Z,4.28
2018-12-20T01:05:28.979Z,4.32
2018-12-20T01:08:10.425Z,4.30
2018-12-20T01:10:43.522Z,4.30
2018-12-20T01:13:25.568Z,4.30
2018-12-20T01:16:07.317Z,4.29
2018-12-20T01:18:49.222Z,4.29
2018-12-20T01:21:24.664Z,4.30
2018-12-20T01:24:06.060Z,4.36
2018-12-20T01:26:47.751Z,4.35
2018-12-20T01:29:20.996Z,4.32
2018-12-20T01:32:03.153Z,4.29
2018-12-20T01:34:33.850Z,4.30
2018-12-20T01:37:15.565Z,4.31
2018-12-20T01:39:50.285Z,4.30
2018-12-20T01:42:31.718Z,4.28
2018-12-20T01:45:05.374Z,4.26
2018-12-20T01:47:46.846Z,4.26
2018-12-20T01:50:19.860Z,4.26
2018-12-20T01:53:01.017Z,4.28
2018-12-20T01:55:36.833Z,4.25
2018-12-20T01:58:18.219Z,4.15
2018-12-20T02:00:51.437Z,4.07
2018-12-20T02:03:33.548Z,4.04
2018-12-20T02:06:15.349Z,4.03
2018-12-20T02:08:57.650Z,4.00
2018-12-20T02:11:32.824Z,4.04
2018-12-20T02:14:14.396Z,4.03
2018-12-20T02:16:56.279Z,4.03
2018-12-20T02:19:30.456Z,4.02
2018-12-20T02:22:01.540Z,4.02
2018-12-20T02:24:37.126Z,4.05
2018-12-20T02:27:19.176Z,4.06
2018-12-20T02:29:52.316Z,4.08
2018-12-20T02:32:34.173Z,4.15
2018-12-20T02:35:22.607Z,4.21
2018-12-20T02:38:04.047Z,4.22
2018-12-20T02:40:38.049Z,4.24
2018-12-20T02:43:19.990Z,4.25
2018-12-20T02:45:55.685Z,4.27
2018-12-20T02:48:37.100Z,4.27
2018-12-20T02:51:16.779Z,4.17
2018-12-20T02:53:58.220Z,4.19
2018-12-20T02:56:40.297Z,4.21
2018-12-20T02:59:27.365Z,4.18
2018-12-20T03:02:09.269Z,4.16
2018-12-20T03:04:51.202Z,4.14
2018-12-20T03:07:33.367Z,4.13
2018-12-20T03:10:06.725Z,4.12
2018-12-20T03:12:48.242Z,4.17
2018-12-20T03:15:30.228Z,4.21
2018-12-20T03:18:05.783Z,4.26
2018-12-20T03:20:38.268Z,4.24
2018-12-20T03:23:20.087Z,4.24
2018-12-20T03:25:51.596Z,4.23
2018-12-20T03:28:33.389Z,4.25
2018-12-20T03:31:06.763Z,4.28
2018-12-20T03:33:49.036Z,4.37
2018-12-20T03:36:29.320Z,4.46
2018-12-20T03:39:10.935Z,4.63
2018-12-20T03:41:53.058Z,4.70
2018-12-20T03:44:34.962Z,4.60
2018-12-20T03:47:05.950Z,4.52
2018-12-20T03:49:38.989Z,4.49
2018-12-20T03:52:21.106Z,4.43
2018-12-20T03:55:03.228Z,4.31
2018-12-20T03:57:45.030Z,4.29
2018-12-20T04:00:18.242Z,4.28
2018-12-20T04:03:00.126Z,4.32
2018-12-20T04:05:47.126Z,4.39
2018-12-20T04:08:29.169Z,4.39
2018-12-20T04:11:02.427Z,4.45
2018-12-20T04:13:33.452Z,4.69
2018-12-20T04:16:08.986Z,4.80
2018-12-20T04:18:40.541Z,4.81
2018-12-20T04:21:13.725Z,4.86
2018-12-20T04:23:56.677Z,5.01
2018-12-20T04:26:38.666Z,5.14
2018-12-20T04:29:20.457Z,5.15
2018-12-20T04:32:02.770Z,5.10
2018-12-20T04:34:44.287Z,5.10
2018-12-20T04:37:15.504Z,5.07
2018-12-20T04:39:48.484Z,5.06
2018-12-20T04:42:30.791Z,5.08
2018-12-20T04:45:08.167Z,5.18
2018-12-20T04:47:49.777Z,5.33
2018-12-20T04:50:31.548Z,5.36
2018-12-20T04:53:13.430Z,5.43
2018-12-20T04:55:55.232Z,5.57
2018-12-20T04:58:36.329Z,5.45
2018-12-20T05:01:08.825Z,5.43
2018-12-20T05:04:04.202Z,5.51
2018-12-20T05:06:46.430Z,5.43
2018-12-20T05:09:28.003Z,5.51
2018-12-20T05:12:03.428Z,5.51
2018-12-20T05:14:50.070Z,5.51
2018-12-20T05:17:31.783Z,5.45
2018-12-20T05:20:07.736Z,5.62
2018-12-20T05:22:38.917Z,5.49
2018-12-20T05:25:20.195Z,5.43
2018-12-20T05:28:01.895Z,5.39
2018-12-20T05:33:43.426Z,5.63
2018-12-20T05:36:19.142Z,5.59
2018-12-20T05:39:13.091Z,5.62
2018-12-20T05:41:43.784Z,5.77
2018-12-20T05:44:25.751Z,5.85
2018-12-20T05:50:01.169Z,5.81
2018-12-20T05:52:42.627Z,5.64
2018-12-20T05:55:13.804Z,5.55
2018-12-20T05:57:56.724Z,5.56
2018-12-20T06:00:30.200Z,5.50
2018-12-20T06:03:12.139Z,5.42
2018-12-20T06:05:54.028Z,5.41
2018-12-20T06:08:35.680Z,5.64
2018-12-20T06:11:08.939Z,5.70
2018-12-20T06:13:50.780Z,5.66
2018-12-20T06:16:32.731Z,5.78
2018-12-20T06:19:22.993Z,5.79
2018-12-20T06:22:04.349Z,5.77
2018-12-20T06:24:46.184Z,5.95
2018-12-20T06:27:21.715Z,5.96
2018-12-20T06:29:54.280Z,5.96
2018-12-20T06:32:36.169Z,6.09
2018-12-20T06:35:18.104Z,6.10
2018-12-20T06:37:59.956Z,6.11
2018-12-20T06:40:33.242Z,6.12
2018-12-20T06:43:15.215Z,6.09
2018-12-20T06:45:56.421Z,6.10
2018-12-20T06:48:39.379Z,6.06
2018-12-20T06:51:12.683Z,5.94
2018-12-20T06:53:54.552Z,5.93
2018-12-20T06:56:25.841Z,5.90
2018-12-20T06:59:07.813Z,5.88
2018-12-20T07:01:49.943Z,5.98
2018-12-20T07:04:31.032Z,6.04
2018-12-20T07:07:01.508Z,6.09
2018-12-20T07:09:34.668Z,6.20
2018-12-20T07:12:15.880Z,6.09
2018-12-20T07:17:47.823Z,6.02
2018-12-20T07:23:08.887Z,5.91
2018-12-20T07:25:50.645Z,5.87
2018-12-20T07:28:24.631Z,5.89
2018-12-20T07:30:57.857Z,5.99
2018-12-20T07:33:39.012Z,5.98
2018-12-20T07:36:20.757Z,5.90
2018-12-20T07:38:53.722Z,5.85
2018-12-20T07:41:26.180Z,6.01
2018-12-20T07:44:03.788Z,5.97
2018-12-20T07:46:45.287Z,5.97
2018-12-20T07:49:27.535Z,6.14
2018-12-20T07:52:10.395Z,6.22
2018-12-20T07:54:43.456Z,6.45
2018-12-20T07:57:14.623Z,6.46
2018-12-20T07:59:47.755Z,6.57
2018-12-20T08:02:29.721Z,6.86
2018-12-20T08:05:11.705Z,6.77
2018-12-20T08:07:53.582Z,6.82
2018-12-20T08:10:29.227Z,6.73
2018-12-20T08:13:01.040Z,6.61
2018-12-20T08:15:42.615Z,6.67
2018-12-20T08:18:13.840Z,6.72
2018-12-20T08:20:53.916Z,6.80
2018-12-20T08:23:35.731Z,6.85
2018-12-20T08:26:16.907Z,7.10
2018-12-20T08:28:58.744Z,7.21
2018-12-20T08:31:31.111Z,7.13
2018-12-20T08:34:12.807Z,7.25
2018-12-20T08:36:59.739Z,7.17
2018-12-20T08:39:32.764Z,7.89
2018-12-20T08:42:13.845Z,8.11
2018-12-20T08:44:55.720Z,8.25
2018-12-20T08:47:37.687Z,8.33
2018-12-20T08:50:10.969Z,8.19
2018-12-20T08:52:53.083Z,7.82
2018-12-20T08:55:34.891Z,8.09
2018-12-20T08:58:09.619Z,8.13
2018-12-20T09:00:42.248Z,8.24
2018-12-20T09:03:23.656Z,8.02
2018-12-20T09:06:05.564Z,7.74
2018-12-20T09:08:47.395Z,7.58
2018-12-20T09:11:20.543Z,7.96
2018-12-20T09:14:01.658Z,8.15
2018-12-20T09:16:43.524Z,8.10
2018-12-20T09:19:25.371Z,7.96
2018-12-20T09:22:07.372Z,8.11
2018-12-20T09:24:49.269Z,7.91
2018-12-20T09:27:31.328Z,8.41
2018-12-20T09:30:04.726Z,8.58
2018-12-20T09:32:46.227Z,8.84
2018-12-20T09:35:20.174Z,9.22
2018-12-20T09:38:01.483Z,9.08
2018-12-20T09:40:34.017Z,9.26
2018-12-20T09:43:07.009Z,9.41
2018-12-20T09:45:48.081Z,9.83
2018-12-20T09:48:30.572Z,10.48
2018-12-20T09:53:54.476Z,10.26
2018-12-20T09:56:36.751Z,10.78
2018-12-20T09:59:18.641Z,10.53
2018-12-20T10:02:00.532Z,10.48
2018-12-20T10:04:41.636Z,10.83
2018-12-20T10:07:22.686Z,10.90
2018-12-20T10:09:55.803Z,11.41
2018-12-20T10:12:37.821Z,11.01
2018-12-20T10:15:19.824Z,10.59
2018-12-20T10:18:03.587Z,10.42
2018-12-20T10:20:35.919Z,10.31
2018-12-20T10:23:17.850Z,10.09
2018-12-20T10:25:59.877Z,10.37
2018-12-20T10:28:49.171Z,10.37
2018-12-20T10:31:21.715Z,10.78
2018-12-20T10:33:52.674Z,10.18
2018-12-20T10:36:40.424Z,10.39
2018-12-20T10:39:22.252Z,10.79
2018-12-20T10:42:04.148Z,10.88
2018-12-20T10:44:45.263Z,10.88
2018-12-20T10:47:29.194Z,11.58
2018-12-20T10:50:09.636Z,12.15
2018-12-20T10:52:42.080Z,11.77
2018-12-20T10:55:15.254Z,12.01
2018-12-20T10:57:56.913Z,10.83
2018-12-20T11:00:34.191Z,10.75
2018-12-20T11:03:11.801Z,11.18
2018-12-20T11:06:01.579Z,12.10
2018-12-20T11:09:50.173Z,11.99
2018-12-20T11:12:31.525Z,10.97
2018-12-20T11:15:05.508Z,11.37
2018-12-20T11:17:46.757Z,11.38
2018-12-20T11:20:22.295Z,11.97
2018-12-20T11:23:02.391Z,12.75
2018-12-20T11:25:43.935Z,12.29
2018-12-20T11:28:15.071Z,13.10
2018-12-20T11:30:48.844Z,12.87
2018-12-20T11:33:30.896Z,12.81
2018-12-20T11:36:12.662Z,13.38
2018-12-20T11:38:54.530Z,12.51
2018-12-20T11:41:27.857Z,12.83
2018-12-20T11:44:09.794Z,14.03
2018-12-20T11:46:51.854Z,14.79
2018-12-20T11:49:23.852Z,14.21
2018-12-20T11:51:56.847Z,12.64
2018-12-20T11:54:38.004Z,13.15
2018-12-20T11:57:20.079Z,13.40
2018-12-20T11:59:55.736Z,13.37
2018-12-20T12:02:26.355Z,12.13
2018-12-20T12:05:07.455Z,11.15
2018-12-20T12:07:51.504Z,11.18
2018-12-20T12:10:24.605Z,11.80
2018-12-20T12:13:06.560Z,11.72
2018-12-20T12:15:48.578Z,11.71
2018-12-20T12:18:21.701Z,11.99
2018-12-20T12:20:54.237Z,11.60
2018-12-20T12:23:35.984Z,11.49
2018-12-20T12:26:17.112Z,11.46
2018-12-20T12:28:50.463Z,11.74
2018-12-20T12:31:28.144Z,11.57
2018-12-20T12:34:14.568Z,11.78
2018-12-20T12:36:56.480Z,10.89
2018-12-20T12:39:29.535Z,10.77
2018-12-20T12:42:00.908Z,10.72
2018-12-20T12:44:38.367Z,10.32
2018-12-20T12:47:23.848Z,10.19
2018-12-20T12:49:56.248Z,10.13
2018-12-20T12:52:38.223Z,10.33
2018-12-20T12:55:24.863Z,10.77
2018-12-20T12:58:06.139Z,11.01
2018-12-20T13:00:39.303Z,11.59
2018-12-20T13:03:21.256Z,12.21
2018-12-20T13:06:02.879Z,11.87
2018-12-20T13:08:38.217Z,12.31
2018-12-20T13:11:11.046Z,12.12
2018-12-20T13:13:52.645Z,11.78
2018-12-20T13:16:28.068Z,11.18
2018-12-20T13:19:09.727Z,10.55
2018-12-20T13:21:51.619Z,10.21
2018-12-20T13:24:33.517Z,10.06
2018-12-20T13:27:19.493Z,9.83
2018-12-20T13:29:52.479Z,9.47
2018-12-20T13:32:34.230Z,9.41
2018-12-20T13:35:19.423Z,9.12
2018-12-20T13:37:54.936Z,9.24
2018-12-20T13:40:28.742Z,9.36
2018-12-20T13:43:10.767Z,9.56
2018-12-20T13:45:52.594Z,9.21
2018-12-20T13:48:34.295Z,9.30
2018-12-20T13:51:06.747Z,9.02
2018-12-20T13:53:48.675Z,8.79
2018-12-20T13:56:24.223Z,8.75
2018-12-20T13:59:05.873Z,8.84
2018-12-20T14:01:40.017Z,8.83
2018-12-20T14:04:21.699Z,8.73
2018-12-20T14:07:03.026Z,8.73
2018-12-20T14:09:38.821Z,8.60
2018-12-20T14:12:21.003Z,8.61
2018-12-20T14:15:05.500Z,8.56
2018-12-20T14:17:46.946Z,8.70
2018-12-20T14:20:20.554Z,8.73
2018-12-20T14:22:57.263Z,8.86
2018-12-20T14:25:29.343Z,8.69
2018-12-20T14:28:06.264Z,8.60
2018-12-20T14:30:42.086Z,8.44
2018-12-20T14:33:21.908Z,8.14
2018-12-20T14:35:52.670Z,8.07
2018-12-20T14:38:34.580Z,8.01
2018-12-20T14:41:07.743Z,7.99
2018-12-20T14:43:49.472Z,7.96
2018-12-20T14:46:36.386Z,7.82
2018-12-20T14:49:18.260Z,7.74
2018-12-20T14:52:00.355Z,7.83
2018-12-20T14:54:42.040Z,7.99
2018-12-20T14:57:23.958Z,7.95
2018-12-20T14:59:57.043Z,7.83
2018-12-20T15:02:41.279Z,7.87
2018-12-20T15:05:23.187Z,7.82
2018-12-20T15:08:04.692Z,7.84
2018-12-20T15:10:37.902Z,7.81
2018-12-20T15:13:10.852Z,7.87
2018-12-20T15:15:52.743Z,7.80
2018-12-20T15:18:34.888Z,7.65
2018-12-20T15:21:17.468Z,7.60
2018-12-20T15:23:59.195Z,7.56
2018-12-20T15:26:40.357Z,7.51
2018-12-20T15:29:14.823Z,7.44
2018-12-20T15:31:56.690Z,7.37
2018-12-20T15:34:37.763Z,7.25
2018-12-20T15:37:19.802Z,7.12
2018-12-20T15:39:52.938Z,6.94
2018-12-20T15:42:25.299Z,6.80
2018-12-20T15:44:57.577Z,6.66
2018-12-20T15:47:28.676Z,6.56
2018-12-20T15:50:05.199Z,6.43
2018-12-20T15:52:46.524Z,6.40
2018-12-20T15:55:28.332Z,6.35
2018-12-20T15:58:10.332Z,6.29
2018-12-20T16:00:43.713Z,6.19
2018-12-20T16:03:25.430Z,6.15
2018-12-20T16:06:07.300Z,6.12
2018-12-20T16:08:49.307Z,6.09
2018-12-20T16:11:22.484Z,6.04
2018-12-20T16:14:04.286Z,6.03
2018-12-20T16:19:29.119Z,6.02
2018-12-20T16:22:10.929Z,6.00
2018-12-20T16:24:52.807Z,5.91
2018-12-20T16:27:34.732Z,5.83
2018-12-20T16:30:10.252Z,5.92
2018-12-20T16:32:52.211Z,6.12
2018-12-20T16:35:33.894Z,6.20
2018-12-20T16:38:14.432Z,6.36
2018-12-20T16:40:47.399Z,6.33
2018-12-20T16:43:23.063Z,6.48
2018-12-20T16:46:04.498Z,6.95
2018-12-20T16:48:53.676Z,6.85
2018-12-20T16:51:26.675Z,6.95
2018-12-20T16:54:11.305Z,6.86
2018-12-20T16:56:53.405Z,7.14
2018-12-20T16:59:28.174Z,7.17
2018-12-20T17:02:03.183Z,7.22
2018-12-20T17:04:44.455Z,7.15
2018-12-20T17:07:18.048Z,7.11
2018-12-20T17:09:59.784Z,7.27
2018-12-20T17:12:34.829Z,7.28
2018-12-20T17:15:18.223Z,7.42
2018-12-20T17:18:00.055Z,7.72
2018-12-20T17:20:34.101Z,7.73
2018-12-20T17:23:21.903Z,7.92
2018-12-20T17:26:03.675Z,7.90
2018-12-20T17:28:45.591Z,7.91
2018-12-20T17:31:18.624Z,7.96
2018-12-20T17:34:01.792Z,8.03
2018-12-20T17:36:43.457Z,7.92
2018-12-20T17:39:25.613Z,7.83
2018-12-20T17:42:00.413Z,7.61
2018-12-20T17:44:31.225Z,7.63
2018-12-20T17:47:13.279Z,7.54
2018-12-20T17:49:46.491Z,7.49
2018-12-20T17:52:28.518Z,7.51
2018-12-20T17:55:05.387Z,7.52
2018-12-20T17:57:51.565Z,7.42
2018-12-20T18:00:24.744Z,7.42
2018-12-20T18:03:06.744Z,7.26
2018-12-20T18:05:48.651Z,7.31
2018-12-20T18:08:31.656Z,7.19
2018-12-20T18:11:04.818Z,7.16
2018-12-20T18:13:46.928Z,7.02
2018-12-20T18:16:22.329Z,6.88
2018-12-20T18:19:03.719Z,6.78
2018-12-20T18:21:37.160Z,6.69
2018-12-20T18:24:19.650Z,6.58
2018-12-20T18:27:01.046Z,6.48
2018-12-20T18:29:34.231Z,6.44
2018-12-20T18:32:05.455Z,6.54
2018-12-20T18:34:38.641Z,6.61
2018-12-20T18:37:20.466Z,6.55
2018-12-20T18:39:53.578Z,6.44
2018-12-20T18:42:35.653Z,6.43
2018-12-20T18:45:17.611Z,6.30
2018-12-20T18:47:48.799Z,6.23
2018-12-20T18:50:21.862Z,6.47
2018-12-20T18:53:08.884Z,6.55
2018-12-20T18:55:50.767Z,6.64
2018-12-20T18:58:21.491Z,7.03
2018-12-20T19:00:54.557Z,7.11
2018-12-20T19:03:36.479Z,7.00
2018-12-20T19:06:24.260Z,6.97
2018-12-20T19:09:06.396Z,6.88
2018-12-20T19:11:39.231Z,6.70
2018-12-20T19:14:21.023Z,6.58
2018-12-20T19:17:02.950Z,6.45
2018-12-20T19:19:44.894Z,6.37
2018-12-20T19:22:26.929Z,6.38
2018-12-20T19:25:03.299Z,6.33
2018-12-20T19:27:45.183Z,6.20
2018-12-20T19:30:18.429Z,6.15
2018-12-20T19:33:03.719Z,6.12
2018-12-20T19:35:48.238Z,6.08
2018-12-20T19:38:27.721Z,6.10
2018-12-20T19:41:06.683Z,6.01
2018-12-20T19:43:42.725Z,5.96
2018-12-20T19:46:15.881Z,5.76
2018-12-20T19:48:58.264Z,5.56
2018-12-20T19:51:40.244Z,5.34
2018-12-20T19:54:16.403Z,5.13
2018-12-20T19:56:55.202Z,5.04
2018-12-20T19:59:38.692Z,4.88
2018-12-20T20:02:18.803Z,4.72
2018-12-20T20:05:04.764Z,4.59
2018-12-20T20:07:47.006Z,4.44
2018-12-20T20:10:21.099Z,4.36
2018-12-20T20:13:02.973Z,4.33
2018-12-20T20:15:38.470Z,4.24
2018-12-20T20:18:17.668Z,4.28
2018-12-20T20:20:51.303Z,4.55
2018-12-20T20:23:24.341Z,4.66
2018-12-20T20:25:59.840Z,4.68
2018-12-20T20:28:41.440Z,4.69
2018-12-20T20:31:14.620Z,4.76
2018-12-20T20:33:56.779Z,4.85
2018-12-20T20:36:38.785Z,4.84
2018-12-20T20:39:21.143Z,4.86
2018-12-20T20:42:04.023Z,4.79
2018-12-20T20:44:52.097Z,4.85
2018-12-20T20:47:32.997Z,4.92
2018-12-20T20:50:08.871Z,4.92
2018-12-20T20:52:50.087Z,4.99
2018-12-20T20:55:22.575Z,5.16
2018-12-20T20:58:17.357Z,5.33
2018-12-20T21:00:50.702Z,5.34
2018-12-20T21:03:38.636Z,5.48
2018-12-20T21:06:09.992Z,5.55
2018-12-20T21:08:51.844Z,5.64
2018-12-20T21:11:24.979Z,6.00
2018-12-20T21:14:07.246Z,6.00
2018-12-20T21:16:38.235Z,6.15
2018-12-20T21:19:12.272Z,6.22
2018-12-20T21:21:54.034Z,6.27
2018-12-20T21:24:29.499Z,6.32
2018-12-20T21:27:12.158Z,6.41
2018-12-20T21:29:44.727Z,6.41
2018-12-20T21:32:27.224Z,6.48
2018-12-20T21:35:10.753Z,6.50
2018-12-20T21:40:45.997Z,6.41
2018-12-20T21:43:27.987Z,6.58
2018-12-20T21:46:01.267Z,6.50
2018-12-20T21:48:45.262Z,6.54
2018-12-20T21:51:22.903Z,6.59
2018-12-20T21:54:04.241Z,6.57
2018-12-20T21:56:47.577Z,6.55
2018-12-20T21:59:36.554Z,6.67
2018-12-20T22:02:19.243Z,6.77
2018-12-20T22:05:01.008Z,6.88
2018-12-20T22:07:42.843Z,6.99
2018-12-20T22:10:16.979Z,6.97
2018-12-20T22:12:58.639Z,7.04
2018-12-20T22:15:39.828Z,7.16
2018-12-20T22:18:21.807Z,7.09
2018-12-20T22:20:55.011Z,7.00
2018-12-20T22:28:34.390Z,7.02
2018-12-20T22:31:07.555Z,7.03
2018-12-20T22:33:44.494Z,7.16
2018-12-20T22:36:26.230Z,7.14
2018-12-20T22:39:01.823Z,7.20
2018-12-20T22:41:34.350Z,7.13
2018-12-20T22:44:16.743Z,7.26
2018-12-20T22:47:04.993Z,7.18
2018-12-20T22:49:38.786Z,6.98
2018-12-20T22:52:20.411Z,6.99
2018-12-20T22:55:02.224Z,7.08
2018-12-20T22:57:35.646Z,7.13
2018-12-20T23:00:12.158Z,7.12
2018-12-20T23:02:53.943Z,7.32
2018-12-20T23:05:36.018Z,7.17
2018-12-20T23:08:17.945Z,7.17
2018-12-20T23:10:51.203Z,6.99
2018-12-20T23:13:32.993Z,6.94
2018-12-20T23:16:17.034Z,7.02
2018-12-20T23:18:59.165Z,7.19
2018-12-20T23:21:35.839Z,7.29
2018-12-20T23:24:17.256Z,7.15
2018-12-20T23:26:58.443Z,6.98
2018-12-20T23:29:29.475Z,7.07
2018-12-20T23:32:12.436Z,7.26
2018-12-20T23:34:54.123Z,7.31
2018-12-20T23:37:36.040Z,7.26
2018-12-20T23:40:09.123Z,7.24
2018-12-20T23:42:46.692Z,7.23
2018-12-20T23:45:21.659Z,7.24
2018-12-20T23:48:02.928Z,7.24
2018-12-20T23:50:36.203Z,7.24
2018-12-20T23:53:17.852Z,7.27
2018-12-20T23:55:59.833Z,7.31
2018-12-20T23:58:41.864Z,7.14
